sensor_id;sensor_type;location;lat;lon;timestamp;P1;durP1;ratioP1;P2;durP2;ratioP2
49610;SDS011;35515;48.766;9.176;2023-11-22T00:00:40;17.17;;;9.38;;
49610;SDS011;35515;48.766;9.176;2023-11-22T00:03:12;17.25;;;7.72;;
49610;SDS011;35515;48.766;9.176;2023-11-22T00:05:38;12.07;;;7.15;;
49610;SDS011;35515;48.766;9.176;2023-11-22T00:08:06;13.23;;;7.10;;
49610;SDS011;35515;48.766;9.176;2023-11-22T00:10:37;9.80;;;5.85;;
49610;SDS011;35515;48.766;9.176;2023-11-22T00:13:06;9.73;;;4.03;;
49610;SDS011;35515;48.766;9.176;2023-11-22T00:15:33;5.53;;;3.25;;
49610;SDS011;35515;48.766;9.176;2023-11-22T00:18:02;7.25;;;3.08;;
49610;SDS011;35515;48.766;9.176;2023-11-22T00:20:29;4.88;;;3.22;;
49610;SDS011;35515;48.766;9.176;2023-11-22T00:22:55;4.50;;;3.28;;
49610;SDS011;35515;48.766;9.176;2023-11-22T00:25:22;3.97;;;2.85;;
49610;SDS011;35515;48.766;9.176;2023-11-22T00:27:54;4.97;;;3.17;;
49610;SDS011;35515;48.766;9.176;2023-11-22T00:30:21;5.40;;;3.15;;
49610;SDS011;35515;48.766;9.176;2023-11-22T00:32:55;4.90;;;3.00;;
49610;SDS011;35515;48.766;9.176;2023-11-22T00:35:22;4.50;;;2.92;;
49610;SDS011;35515;48.766;9.176;2023-11-22T00:37:48;5.47;;;3.63;;
49610;SDS011;35515;48.766;9.176;2023-11-22T00:40:17;4.15;;;3.20;;
49610;SDS011;35515;48.766;9.176;2023-11-22T00:42:45;5.45;;;3.47;;
49610;SDS011;35515;48.766;9.176;2023-11-22T00:45:15;5.70;;;3.58;;
49610;SDS011;35515;48.766;9.176;2023-11-22T00:47:45;5.72;;;3.47;;
49610;SDS011;35515;48.766;9.176;2023-11-22T00:50:14;5.75;;;3.60;;
49610;SDS011;35515;48.766;9.176;2023-11-22T00:52:44;7.00;;;4.00;;
49610;SDS011;35515;48.766;9.176;2023-11-22T00:55:13;6.18;;;4.00;;
49610;SDS011;35515;48.766;9.176;2023-11-22T00:57:39;6.97;;;4.10;;
49610;SDS011;35515;48.766;9.176;2023-11-22T01:00:07;5.82;;;3.83;;
49610;SDS011;35515;48.766;9.176;2023-11-22T01:02:37;6.22;;;4.00;;
49610;SDS011;35515;48.766;9.176;2023-11-22T01:05:05;6.80;;;4.07;;
49610;SDS011;35515;48.766;9.176;2023-11-22T01:07:38;6.05;;;4.43;;
49610;SDS011;35515;48.766;9.176;2023-11-22T01:10:05;7.60;;;4.50;;
49610;SDS011;35515;48.766;9.176;2023-11-22T01:12:41;7.30;;;4.75;;
49610;SDS011;35515;48.766;9.176;2023-11-22T01:15:08;8.15;;;5.30;;
49610;SDS011;35515;48.766;9.176;2023-11-22T01:17:46;6.75;;;4.78;;
49610;SDS011;35515;48.766;9.176;2023-11-22T01:20:25;7.72;;;4.70;;
49610;SDS011;35515;48.766;9.176;2023-11-22T01:22:51;7.15;;;4.97;;
49610;SDS011;35515;48.766;9.176;2023-11-22T01:25:18;6.65;;;4.45;;
49610;SDS011;35515;48.766;9.176;2023-11-22T01:27:46;7.32;;;4.57;;
49610;SDS011;35515;48.766;9.176;2023-11-22T01:30:12;8.55;;;5.05;;
49610;SDS011;35515;48.766;9.176;2023-11-22T01:32:40;7.47;;;4.60;;
49610;SDS011;35515;48.766;9.176;2023-11-22T01:35:09;9.23;;;5.03;;
49610;SDS011;35515;48.766;9.176;2023-11-22T01:37:36;6.93;;;5.18;;
49610;SDS011;35515;48.766;9.176;2023-11-22T01:40:03;6.47;;;4.68;;
49610;SDS011;35515;48.766;9.176;2023-11-22T01:42:31;8.60;;;4.93;;
49610;SDS011;35515;48.766;9.176;2023-11-22T01:44:57;6.75;;;4.55;;
49610;SDS011;35515;48.766;9.176;2023-11-22T01:47:26;7.15;;;4.85;;
49610;SDS011;35515;48.766;9.176;2023-11-22T01:49:56;6.63;;;4.80;;
49610;SDS011;35515;48.766;9.176;2023-11-22T01:52:24;8.35;;;5.00;;
49610;SDS011;35515;48.766;9.176;2023-11-22T01:54:57;7.80;;;4.50;;
49610;SDS011;35515;48.766;9.176;2023-11-22T01:57:31;5.20;;;4.00;;
49610;SDS011;35515;48.766;9.176;2023-11-22T02:00:04;7.03;;;4.35;;
49610;SDS011;35515;48.766;9.176;2023-11-22T02:02:33;6.85;;;4.63;;
49610;SDS011;35515;48.766;9.176;2023-11-22T02:05:00;5.45;;;4.00;;
49610;SDS011;35515;48.766;9.176;2023-11-22T02:07:27;5.78;;;3.90;;
49610;SDS011;35515;48.766;9.176;2023-11-22T02:09:57;6.53;;;4.38;;
49610;SDS011;35515;48.766;9.176;2023-11-22T02:12:27;4.88;;;3.45;;
49610;SDS011;35515;48.766;9.176;2023-11-22T02:14:53;5.55;;;3.85;;
49610;SDS011;35515;48.766;9.176;2023-11-22T02:17:22;5.72;;;3.97;;
49610;SDS011;35515;48.766;9.176;2023-11-22T02:19:55;5.70;;;3.60;;
49610;SDS011;35515;48.766;9.176;2023-11-22T02:22:21;5.35;;;4.05;;
49610;SDS011;35515;48.766;9.176;2023-11-22T02:24:52;5.05;;;3.60;;
49610;SDS011;35515;48.766;9.176;2023-11-22T02:27:20;4.72;;;3.60;;
49610;SDS011;35515;48.766;9.176;2023-11-22T02:29:52;6.57;;;4.35;;
49610;SDS011;35515;48.766;9.176;2023-11-22T02:32:20;5.55;;;3.60;;
49610;SDS011;35515;48.766;9.176;2023-11-22T02:34:49;6.72;;;4.30;;
49610;SDS011;35515;48.766;9.176;2023-11-22T02:37:16;5.35;;;3.45;;
49610;SDS011;35515;48.766;9.176;2023-11-22T02:42:29;4.93;;;3.40;;
49610;SDS011;35515;48.766;9.176;2023-11-22T02:44:59;7.03;;;3.42;;
49610;SDS011;35515;48.766;9.176;2023-11-22T02:47:24;6.03;;;3.88;;
49610;SDS011;35515;48.766;9.176;2023-11-22T02:49:53;5.45;;;3.67;;
49610;SDS011;35515;48.766;9.176;2023-11-22T02:52:20;6.53;;;3.85;;
49610;SDS011;35515;48.766;9.176;2023-11-22T02:54:51;5.72;;;3.72;;
49610;SDS011;35515;48.766;9.176;2023-11-22T02:57:19;5.38;;;3.65;;
49610;SDS011;35515;48.766;9.176;2023-11-22T02:59:52;5.85;;;3.70;;
49610;SDS011;35515;48.766;9.176;2023-11-22T03:02:18;5.85;;;4.35;;
49610;SDS011;35515;48.766;9.176;2023-11-22T03:04:47;5.70;;;3.78;;
49610;SDS011;35515;48.766;9.176;2023-11-22T03:07:14;5.25;;;3.88;;
49610;SDS011;35515;48.766;9.176;2023-11-22T03:09:41;6.32;;;3.90;;
49610;SDS011;35515;48.766;9.176;2023-11-22T03:12:09;5.20;;;3.50;;
49610;SDS011;35515;48.766;9.176;2023-11-22T03:14:39;6.13;;;3.85;;
49610;SDS011;35515;48.766;9.176;2023-11-22T03:17:07;9.25;;;3.88;;
49610;SDS011;35515;48.766;9.176;2023-11-22T03:19:37;5.22;;;3.60;;
49610;SDS011;35515;48.766;9.176;2023-11-22T03:22:04;5.65;;;3.95;;
49610;SDS011;35515;48.766;9.176;2023-11-22T03:24:31;6.80;;;4.40;;
49610;SDS011;35515;48.766;9.176;2023-11-22T03:26:59;6.45;;;4.25;;
49610;SDS011;35515;48.766;9.176;2023-11-22T03:29:26;6.05;;;3.85;;
49610;SDS011;35515;48.766;9.176;2023-11-22T03:31:54;5.30;;;3.53;;
49610;SDS011;35515;48.766;9.176;2023-11-22T03:34:21;4.95;;;3.90;;
49610;SDS011;35515;48.766;9.176;2023-11-22T03:36:48;5.50;;;3.97;;
49610;SDS011;35515;48.766;9.176;2023-11-22T03:39:15;6.05;;;3.63;;
49610;SDS011;35515;48.766;9.176;2023-11-22T03:41:41;5.15;;;3.80;;
49610;SDS011;35515;48.766;9.176;2023-11-22T03:44:08;6.05;;;4.10;;
49610;SDS011;35515;48.766;9.176;2023-11-22T03:46:35;5.53;;;3.72;;
49610;SDS011;35515;48.766;9.176;2023-11-22T03:49:03;7.78;;;3.80;;
49610;SDS011;35515;48.766;9.176;2023-11-22T03:51:31;5.95;;;3.95;;
49610;SDS011;35515;48.766;9.176;2023-11-22T03:53:58;5.40;;;3.22;;
49610;SDS011;35515;48.766;9.176;2023-11-22T03:56:25;7.50;;;4.25;;
49610;SDS011;35515;48.766;9.176;2023-11-22T03:58:52;5.90;;;4.10;;
49610;SDS011;35515;48.766;9.176;2023-11-22T04:01:18;8.73;;;4.43;;
49610;SDS011;35515;48.766;9.176;2023-11-22T04:03:45;7.28;;;4.18;;
49610;SDS011;35515;48.766;9.176;2023-11-22T04:06:14;6.45;;;4.10;;
49610;SDS011;35515;48.766;9.176;2023-11-22T04:08:41;6.72;;;4.55;;
49610;SDS011;35515;48.766;9.176;2023-11-22T04:11:09;6.40;;;3.75;;
49610;SDS011;35515;48.766;9.176;2023-11-22T04:13:36;6.82;;;4.28;;
49610;SDS011;35515;48.766;9.176;2023-11-22T04:16:03;6.70;;;4.53;;
49610;SDS011;35515;48.766;9.176;2023-11-22T04:18:29;5.22;;;3.92;;
49610;SDS011;35515;48.766;9.176;2023-11-22T04:20:56;6.38;;;4.15;;
49610;SDS011;35515;48.766;9.176;2023-11-22T04:23:27;5.88;;;4.20;;
49610;SDS011;35515;48.766;9.176;2023-11-22T04:25:54;7.30;;;4.38;;
49610;SDS011;35515;48.766;9.176;2023-11-22T04:28:20;8.30;;;4.90;;
49610;SDS011;35515;48.766;9.176;2023-11-22T04:30:47;7.30;;;4.70;;
49610;SDS011;35515;48.766;9.176;2023-11-22T04:33:13;5.95;;;4.35;;
49610;SDS011;35515;48.766;9.176;2023-11-22T04:35:39;5.72;;;4.30;;
49610;SDS011;35515;48.766;9.176;2023-11-22T04:38:06;7.95;;;5.25;;
49610;SDS011;35515;48.766;9.176;2023-11-22T04:40:34;5.93;;;4.30;;
49610;SDS011;35515;48.766;9.176;2023-11-22T04:43:01;6.97;;;4.38;;
49610;SDS011;35515;48.766;9.176;2023-11-22T04:45:28;6.68;;;4.35;;
49610;SDS011;35515;48.766;9.176;2023-11-22T04:47:54;5.90;;;4.25;;
49610;SDS011;35515;48.766;9.176;2023-11-22T04:50:22;6.07;;;4.50;;
49610;SDS011;35515;48.766;9.176;2023-11-22T04:52:49;6.55;;;4.70;;
49610;SDS011;35515;48.766;9.176;2023-11-22T04:55:16;7.35;;;4.78;;
49610;SDS011;35515;48.766;9.176;2023-11-22T04:57:44;6.50;;;4.38;;
49610;SDS011;35515;48.766;9.176;2023-11-22T05:00:11;6.63;;;4.38;;
49610;SDS011;35515;48.766;9.176;2023-11-22T05:02:38;6.60;;;4.68;;
49610;SDS011;35515;48.766;9.176;2023-11-22T05:05:06;7.00;;;4.35;;
49610;SDS011;35515;48.766;9.176;2023-11-22T05:07:35;6.43;;;4.25;;
49610;SDS011;35515;48.766;9.176;2023-11-22T05:10:01;7.28;;;5.05;;
49610;SDS011;35515;48.766;9.176;2023-11-22T05:12:28;5.78;;;4.35;;
49610;SDS011;35515;48.766;9.176;2023-11-22T05:14:56;6.43;;;4.05;;
49610;SDS011;35515;48.766;9.176;2023-11-22T05:17:23;7.07;;;5.00;;
49610;SDS011;35515;48.766;9.176;2023-11-22T05:19:49;6.63;;;4.68;;
49610;SDS011;35515;48.766;9.176;2023-11-22T05:22:16;6.15;;;4.07;;
49610;SDS011;35515;48.766;9.176;2023-11-22T05:24:43;6.78;;;4.85;;
49610;SDS011;35515;48.766;9.176;2023-11-22T05:27:10;7.28;;;3.97;;
49610;SDS011;35515;48.766;9.176;2023-11-22T05:29:36;5.82;;;4.03;;
49610;SDS011;35515;48.766;9.176;2023-11-22T05:32:05;5.57;;;3.95;;
49610;SDS011;35515;48.766;9.176;2023-11-22T05:34:32;6.40;;;4.18;;
49610;SDS011;35515;48.766;9.176;2023-11-22T05:36:59;6.93;;;4.43;;
49610;SDS011;35515;48.766;9.176;2023-11-22T05:39:25;5.35;;;3.72;;
49610;SDS011;35515;48.766;9.176;2023-11-22T05:41:52;8.38;;;4.03;;
49610;SDS011;35515;48.766;9.176;2023-11-22T05:44:19;6.28;;;4.20;;
49610;SDS011;35515;48.766;9.176;2023-11-22T05:46:47;5.85;;;4.22;;
49610;SDS011;35515;48.766;9.176;2023-11-22T05:49:14;8.13;;;4.63;;
49610;SDS011;35515;48.766;9.176;2023-11-22T05:51:41;5.53;;;3.90;;
49610;SDS011;35515;48.766;9.176;2023-11-22T05:54:08;6.60;;;4.50;;
49610;SDS011;35515;48.766;9.176;2023-11-22T05:56:36;5.35;;;3.70;;
49610;SDS011;35515;48.766;9.176;2023-11-22T05:59:03;6.80;;;3.90;;
49610;SDS011;35515;48.766;9.176;2023-11-22T06:01:29;8.65;;;4.80;;
49610;SDS011;35515;48.766;9.176;2023-11-22T06:03:56;6.45;;;3.95;;
49610;SDS011;35515;48.766;9.176;2023-11-22T06:06:24;6.57;;;4.50;;
49610;SDS011;35515;48.766;9.176;2023-11-22T06:08:50;7.20;;;4.35;;
49610;SDS011;35515;48.766;9.176;2023-11-22T06:11:18;9.05;;;4.95;;
49610;SDS011;35515;48.766;9.176;2023-11-22T06:13:45;7.15;;;4.35;;
49610;SDS011;35515;48.766;9.176;2023-11-22T06:16:12;6.95;;;3.65;;
49610;SDS011;35515;48.766;9.176;2023-11-22T06:18:38;6.80;;;4.18;;
49610;SDS011;35515;48.766;9.176;2023-11-22T06:21:06;7.80;;;4.72;;
49610;SDS011;35515;48.766;9.176;2023-11-22T06:23:34;5.38;;;3.85;;
49610;SDS011;35515;48.766;9.176;2023-11-22T06:26:01;8.52;;;4.72;;
49610;SDS011;35515;48.766;9.176;2023-11-22T06:28:28;5.18;;;3.90;;
49610;SDS011;35515;48.766;9.176;2023-11-22T06:30:55;6.00;;;3.55;;
49610;SDS011;35515;48.766;9.176;2023-11-22T06:33:21;5.70;;;4.15;;
49610;SDS011;35515;48.766;9.176;2023-11-22T06:35:48;6.70;;;4.10;;
49610;SDS011;35515;48.766;9.176;2023-11-22T06:38:14;5.05;;;3.40;;
49610;SDS011;35515;48.766;9.176;2023-11-22T06:40:43;6.85;;;4.25;;
49610;SDS011;35515;48.766;9.176;2023-11-22T06:43:09;5.00;;;3.75;;
49610;SDS011;35515;48.766;9.176;2023-11-22T06:45:36;5.50;;;4.07;;
49610;SDS011;35515;48.766;9.176;2023-11-22T06:48:03;6.97;;;3.47;;
49610;SDS011;35515;48.766;9.176;2023-11-22T06:50:30;5.35;;;3.63;;
49610;SDS011;35515;48.766;9.176;2023-11-22T06:52:57;4.78;;;3.53;;
49610;SDS011;35515;48.766;9.176;2023-11-22T06:55:23;6.50;;;4.20;;
49610;SDS011;35515;48.766;9.176;2023-11-22T06:57:53;7.47;;;3.97;;
49610;SDS011;35515;48.766;9.176;2023-11-22T07:00:20;7.00;;;3.92;;
49610;SDS011;35515;48.766;9.176;2023-11-22T07:02:46;7.07;;;4.20;;
49610;SDS011;35515;48.766;9.176;2023-11-22T07:05:13;7.50;;;4.57;;
49610;SDS011;35515;48.766;9.176;2023-11-22T07:07:39;7.25;;;4.07;;
49610;SDS011;35515;48.766;9.176;2023-11-22T07:10:06;5.63;;;4.25;;
49610;SDS011;35515;48.766;9.176;2023-11-22T07:12:33;6.97;;;3.95;;
49610;SDS011;35515;48.766;9.176;2023-11-22T07:15:02;7.28;;;3.85;;
49610;SDS011;35515;48.766;9.176;2023-11-22T07:17:30;5.00;;;3.67;;
49610;SDS011;35515;48.766;9.176;2023-11-22T07:19:58;7.55;;;3.70;;
49610;SDS011;35515;48.766;9.176;2023-11-22T07:22:26;6.47;;;3.35;;
49610;SDS011;35515;48.766;9.176;2023-11-22T07:24:53;4.60;;;3.30;;
49610;SDS011;35515;48.766;9.176;2023-11-22T07:27:20;5.72;;;3.65;;
49610;SDS011;35515;48.766;9.176;2023-11-22T07:29:47;4.93;;;3.47;;
49610;SDS011;35515;48.766;9.176;2023-11-22T07:32:18;4.45;;;3.00;;
49610;SDS011;35515;48.766;9.176;2023-11-22T07:34:46;5.78;;;3.80;;
49610;SDS011;35515;48.766;9.176;2023-11-22T07:37:13;5.68;;;3.70;;
49610;SDS011;35515;48.766;9.176;2023-11-22T07:39:40;5.78;;;3.08;;
49610;SDS011;35515;48.766;9.176;2023-11-22T07:42:08;6.00;;;3.50;;
49610;SDS011;35515;48.766;9.176;2023-11-22T07:44:34;4.93;;;3.20;;
49610;SDS011;35515;48.766;9.176;2023-11-22T07:47:03;6.40;;;3.35;;
49610;SDS011;35515;48.766;9.176;2023-11-22T07:49:34;5.53;;;3.35;;
49610;SDS011;35515;48.766;9.176;2023-11-22T07:52:02;5.40;;;3.50;;
49610;SDS011;35515;48.766;9.176;2023-11-22T07:54:29;8.45;;;3.55;;
49610;SDS011;35515;48.766;9.176;2023-11-22T07:56:56;6.10;;;3.22;;
49610;SDS011;35515;48.766;9.176;2023-11-22T07:59:23;5.40;;;3.40;;
49610;SDS011;35515;48.766;9.176;2023-11-22T08:01:49;5.32;;;3.33;;
49610;SDS011;35515;48.766;9.176;2023-11-22T08:04:18;7.50;;;3.90;;
49610;SDS011;35515;48.766;9.176;2023-11-22T08:06:46;4.60;;;3.45;;
49610;SDS011;35515;48.766;9.176;2023-11-22T08:09:14;5.57;;;3.50;;
49610;SDS011;35515;48.766;9.176;2023-11-22T08:11:41;4.38;;;3.38;;
49610;SDS011;35515;48.766;9.176;2023-11-22T08:14:08;8.55;;;4.82;;
49610;SDS011;35515;48.766;9.176;2023-11-22T08:16:34;8.05;;;4.20;;
49610;SDS011;35515;48.766;9.176;2023-11-22T08:19:03;6.03;;;3.58;;
49610;SDS011;35515;48.766;9.176;2023-11-22T08:21:31;6.43;;;3.75;;
49610;SDS011;35515;48.766;9.176;2023-11-22T08:24:00;7.85;;;4.45;;
49610;SDS011;35515;48.766;9.176;2023-11-22T08:26:28;5.53;;;3.60;;
49610;SDS011;35515;48.766;9.176;2023-11-22T08:28:54;5.10;;;3.40;;
49610;SDS011;35515;48.766;9.176;2023-11-22T08:31:21;4.70;;;3.33;;
49610;SDS011;35515;48.766;9.176;2023-11-22T08:33:47;5.43;;;4.07;;
49610;SDS011;35515;48.766;9.176;2023-11-22T08:36:14;7.03;;;3.85;;
49610;SDS011;35515;48.766;9.176;2023-11-22T08:38:41;5.10;;;3.88;;
49610;SDS011;35515;48.766;9.176;2023-11-22T08:41:10;4.97;;;3.55;;
49610;SDS011;35515;48.766;9.176;2023-11-22T08:43:38;5.82;;;3.97;;
49610;SDS011;35515;48.766;9.176;2023-11-22T08:46:05;5.30;;;3.60;;
49610;SDS011;35515;48.766;9.176;2023-11-22T08:48:33;6.80;;;3.60;;
49610;SDS011;35515;48.766;9.176;2023-11-22T08:50:59;5.40;;;3.83;;
49610;SDS011;35515;48.766;9.176;2023-11-22T08:53:29;6.80;;;4.22;;
49610;SDS011;35515;48.766;9.176;2023-11-22T08:55:55;7.00;;;3.97;;
49610;SDS011;35515;48.766;9.176;2023-11-22T08:58:23;5.75;;;3.58;;
49610;SDS011;35515;48.766;9.176;2023-11-22T09:00:50;5.85;;;4.00;;
49610;SDS011;35515;48.766;9.176;2023-11-22T09:03:17;5.95;;;4.13;;
49610;SDS011;35515;48.766;9.176;2023-11-22T09:05:44;6.88;;;4.07;;
49610;SDS011;35515;48.766;9.176;2023-11-22T09:08:11;6.50;;;4.28;;
49610;SDS011;35515;48.766;9.176;2023-11-22T09:10:40;8.07;;;4.07;;
49610;SDS011;35515;48.766;9.176;2023-11-22T09:13:07;7.32;;;4.40;;
49610;SDS011;35515;48.766;9.176;2023-11-22T09:15:35;6.05;;;4.10;;
49610;SDS011;35515;48.766;9.176;2023-11-22T09:18:03;8.85;;;4.30;;
49610;SDS011;35515;48.766;9.176;2023-11-22T09:20:31;7.05;;;4.50;;
49610;SDS011;35515;48.766;9.176;2023-11-22T09:22:58;9.10;;;3.90;;
49610;SDS011;35515;48.766;9.176;2023-11-22T09:25:24;7.75;;;3.85;;
49610;SDS011;35515;48.766;9.176;2023-11-22T09:27:53;9.57;;;4.68;;
49610;SDS011;35515;48.766;9.176;2023-11-22T09:30:24;6.77;;;4.83;;
49610;SDS011;35515;48.766;9.176;2023-11-22T09:33:01;9.27;;;4.53;;
49610;SDS011;35515;48.766;9.176;2023-11-22T09:35:29;7.45;;;4.22;;
49610;SDS011;35515;48.766;9.176;2023-11-22T09:37:57;7.53;;;4.05;;
49610;SDS011;35515;48.766;9.176;2023-11-22T09:40:24;8.55;;;4.18;;
49610;SDS011;35515;48.766;9.176;2023-11-22T09:42:52;7.05;;;4.43;;
49610;SDS011;35515;48.766;9.176;2023-11-22T09:45:20;7.35;;;4.35;;
49610;SDS011;35515;48.766;9.176;2023-11-22T09:47:47;7.63;;;3.95;;
49610;SDS011;35515;48.766;9.176;2023-11-22T09:50:17;7.65;;;4.43;;
49610;SDS011;35515;48.766;9.176;2023-11-22T09:52:46;8.43;;;5.07;;
49610;SDS011;35515;48.766;9.176;2023-11-22T09:55:17;6.28;;;4.43;;
49610;SDS011;35515;48.766;9.176;2023-11-22T09:57:45;7.03;;;4.43;;
49610;SDS011;35515;48.766;9.176;2023-11-22T10:00:12;7.25;;;4.60;;
49610;SDS011;35515;48.766;9.176;2023-11-22T10:02:43;10.32;;;4.72;;
49610;SDS011;35515;48.766;9.176;2023-11-22T10:05:10;10.07;;;5.10;;
49610;SDS011;35515;48.766;9.176;2023-11-22T10:07:39;12.45;;;5.30;;
49610;SDS011;35515;48.766;9.176;2023-11-22T10:10:06;9.15;;;5.50;;
49610;SDS011;35515;48.766;9.176;2023-11-22T10:12:36;8.05;;;5.45;;
49610;SDS011;35515;48.766;9.176;2023-11-22T10:15:11;8.65;;;4.65;;
49610;SDS011;35515;48.766;9.176;2023-11-22T10:17:39;7.10;;;4.85;;
49610;SDS011;35515;48.766;9.176;2023-11-22T10:20:06;9.15;;;5.47;;
49610;SDS011;35515;48.766;9.176;2023-11-22T10:22:45;7.57;;;5.10;;
49610;SDS011;35515;48.766;9.176;2023-11-22T10:25:13;7.20;;;4.90;;
49610;SDS011;35515;48.766;9.176;2023-11-22T10:27:43;6.60;;;5.05;;
49610;SDS011;35515;48.766;9.176;2023-11-22T10:30:10;7.57;;;4.88;;
49610;SDS011;35515;48.766;9.176;2023-11-22T10:32:37;6.93;;;4.93;;
49610;SDS011;35515;48.766;9.176;2023-11-22T10:35:05;7.32;;;5.22;;
49610;SDS011;35515;48.766;9.176;2023-11-22T10:37:32;13.30;;;5.00;;
49610;SDS011;35515;48.766;9.176;2023-11-22T10:40:01;7.25;;;5.20;;
49610;SDS011;35515;48.766;9.176;2023-11-22T10:42:30;8.65;;;5.07;;
49610;SDS011;35515;48.766;9.176;2023-11-22T10:44:57;10.60;;;5.55;;
49610;SDS011;35515;48.766;9.176;2023-11-22T10:47:28;7.95;;;5.68;;
49610;SDS011;35515;48.766;9.176;2023-11-22T10:49:56;10.73;;;6.05;;
49610;SDS011;35515;48.766;9.176;2023-11-22T10:52:22;9.95;;;6.28;;
49610;SDS011;35515;48.766;9.176;2023-11-22T10:55:00;9.17;;;5.93;;
49610;SDS011;35515;48.766;9.176;2023-11-22T10:57:31;9.73;;;5.80;;
49610;SDS011;35515;48.766;9.176;2023-11-22T11:00:00;6.82;;;5.13;;
49610;SDS011;35515;48.766;9.176;2023-11-22T11:02:32;8.38;;;5.28;;
49610;SDS011;35515;48.766;9.176;2023-11-22T11:05:11;8.60;;;5.38;;
49610;SDS011;35515;48.766;9.176;2023-11-22T11:07:44;9.43;;;6.32;;
49610;SDS011;35515;48.766;9.176;2023-11-22T11:10:17;8.20;;;5.53;;
49610;SDS011;35515;48.766;9.176;2023-11-22T11:12:46;12.37;;;6.50;;
49610;SDS011;35515;48.766;9.176;2023-11-22T11:15:13;9.80;;;6.07;;
49610;SDS011;35515;48.766;9.176;2023-11-22T11:17:42;9.00;;;5.82;;
49610;SDS011;35515;48.766;9.176;2023-11-22T11:20:12;10.70;;;6.40;;
49610;SDS011;35515;48.766;9.176;2023-11-22T11:22:39;8.75;;;6.35;;
49610;SDS011;35515;48.766;9.176;2023-11-22T11:25:06;7.95;;;5.47;;
49610;SDS011;35515;48.766;9.176;2023-11-22T11:27:34;9.52;;;5.95;;
49610;SDS011;35515;48.766;9.176;2023-11-22T11:30:01;9.80;;;5.70;;
49610;SDS011;35515;48.766;9.176;2023-11-22T11:32:31;6.75;;;5.10;;
49610;SDS011;35515;48.766;9.176;2023-11-22T11:34:58;9.07;;;5.80;;
49610;SDS011;35515;48.766;9.176;2023-11-22T11:37:28;11.40;;;5.63;;
49610;SDS011;35515;48.766;9.176;2023-11-22T11:39:55;6.85;;;5.63;;
49610;SDS011;35515;48.766;9.176;2023-11-22T11:42:23;12.30;;;5.80;;
49610;SDS011;35515;48.766;9.176;2023-11-22T11:44:52;8.95;;;5.60;;
49610;SDS011;35515;48.766;9.176;2023-11-22T11:47:32;10.80;;;5.82;;
49610;SDS011;35515;48.766;9.176;2023-11-22T11:49:59;7.90;;;5.63;;
49610;SDS011;35515;48.766;9.176;2023-11-22T11:52:26;11.05;;;6.25;;
49610;SDS011;35515;48.766;9.176;2023-11-22T11:54:53;9.55;;;6.10;;
49610;SDS011;35515;48.766;9.176;2023-11-22T11:57:21;9.10;;;5.43;;
49610;SDS011;35515;48.766;9.176;2023-11-22T11:59:47;8.68;;;5.70;;
49610;SDS011;35515;48.766;9.176;2023-11-22T12:02:16;10.27;;;5.43;;
49610;SDS011;35515;48.766;9.176;2023-11-22T12:04:44;11.65;;;6.97;;
49610;SDS011;35515;48.766;9.176;2023-11-22T12:07:11;11.18;;;7.05;;
49610;SDS011;35515;48.766;9.176;2023-11-22T12:09:38;7.97;;;5.32;;
49610;SDS011;35515;48.766;9.176;2023-11-22T12:12:04;14.55;;;6.15;;
49610;SDS011;35515;48.766;9.176;2023-11-22T12:14:31;9.38;;;6.53;;
49610;SDS011;35515;48.766;9.176;2023-11-22T12:16:58;7.72;;;5.55;;
49610;SDS011;35515;48.766;9.176;2023-11-22T12:19:27;10.23;;;5.95;;
49610;SDS011;35515;48.766;9.176;2023-11-22T12:21:56;8.23;;;6.18;;
49610;SDS011;35515;48.766;9.176;2023-11-22T12:24:23;9.15;;;5.50;;
49610;SDS011;35515;48.766;9.176;2023-11-22T12:26:50;9.18;;;6.10;;
49610;SDS011;35515;48.766;9.176;2023-11-22T12:29:17;9.35;;;6.30;;
49610;SDS011;35515;48.766;9.176;2023-11-22T12:31:44;9.50;;;5.85;;
49610;SDS011;35515;48.766;9.176;2023-11-22T12:34:12;11.65;;;6.05;;
49610;SDS011;35515;48.766;9.176;2023-11-22T12:36:42;8.93;;;5.72;;
49610;SDS011;35515;48.766;9.176;2023-11-22T12:39:08;9.70;;;5.55;;
49610;SDS011;35515;48.766;9.176;2023-11-22T12:41:42;8.98;;;5.78;;
49610;SDS011;35515;48.766;9.176;2023-11-22T12:44:10;22.52;;;11.00;;
49610;SDS011;35515;48.766;9.176;2023-11-22T12:49:24;8.52;;;6.15;;
49610;SDS011;35515;48.766;9.176;2023-11-22T12:51:52;10.38;;;6.60;;
49610;SDS011;35515;48.766;9.176;2023-11-22T12:54:20;14.55;;;6.50;;
49610;SDS011;35515;48.766;9.176;2023-11-22T12:56:48;10.27;;;6.10;;
49610;SDS011;35515;48.766;9.176;2023-11-22T12:59:23;8.57;;;5.88;;
49610;SDS011;35515;48.766;9.176;2023-11-22T13:01:49;11.18;;;6.00;;
49610;SDS011;35515;48.766;9.176;2023-11-22T13:04:17;8.68;;;6.18;;
49610;SDS011;35515;48.766;9.176;2023-11-22T13:06:44;8.85;;;5.40;;
49610;SDS011;35515;48.766;9.176;2023-11-22T13:09:12;8.35;;;5.82;;
49610;SDS011;35515;48.766;9.176;2023-11-22T13:11:41;11.73;;;6.23;;
49610;SDS011;35515;48.766;9.176;2023-11-22T13:14:08;10.52;;;5.70;;
49610;SDS011;35515;48.766;9.176;2023-11-22T13:16:35;8.65;;;5.45;;
49610;SDS011;35515;48.766;9.176;2023-11-22T13:19:03;9.48;;;6.28;;
49610;SDS011;35515;48.766;9.176;2023-11-22T13:21:30;11.45;;;5.85;;
49610;SDS011;35515;48.766;9.176;2023-11-22T13:23:57;11.10;;;7.25;;
49610;SDS011;35515;48.766;9.176;2023-11-22T13:26:25;13.23;;;6.07;;
49610;SDS011;35515;48.766;9.176;2023-11-22T13:28:52;7.72;;;5.60;;
49610;SDS011;35515;48.766;9.176;2023-11-22T13:31:20;9.18;;;6.10;;
49610;SDS011;35515;48.766;9.176;2023-11-22T13:33:48;9.13;;;5.60;;
49610;SDS011;35515;48.766;9.176;2023-11-22T13:36:15;11.48;;;6.90;;
49610;SDS011;35515;48.766;9.176;2023-11-22T13:38:42;10.75;;;6.45;;
49610;SDS011;35515;48.766;9.176;2023-11-22T13:41:09;8.77;;;5.75;;
49610;SDS011;35515;48.766;9.176;2023-11-22T13:43:37;9.93;;;6.70;;
49610;SDS011;35515;48.766;9.176;2023-11-22T13:46:04;9.23;;;5.90;;
49610;SDS011;35515;48.766;9.176;2023-11-22T13:48:31;8.70;;;6.05;;
49610;SDS011;35515;48.766;9.176;2023-11-22T13:50:58;12.93;;;7.07;;
49610;SDS011;35515;48.766;9.176;2023-11-22T13:53:25;8.18;;;5.82;;
49610;SDS011;35515;48.766;9.176;2023-11-22T13:55:58;9.23;;;6.55;;
49610;SDS011;35515;48.766;9.176;2023-11-22T13:58:25;8.52;;;6.07;;
49610;SDS011;35515;48.766;9.176;2023-11-22T14:00:53;10.93;;;6.75;;
49610;SDS011;35515;48.766;9.176;2023-11-22T14:03:20;9.43;;;6.18;;
49610;SDS011;35515;48.766;9.176;2023-11-22T14:05:47;10.52;;;6.22;;
49610;SDS011;35515;48.766;9.176;2023-11-22T14:08:13;9.52;;;5.93;;
49610;SDS011;35515;48.766;9.176;2023-11-22T14:10:40;8.63;;;5.90;;
49610;SDS011;35515;48.766;9.176;2023-11-22T14:13:06;11.77;;;6.45;;
49610;SDS011;35515;48.766;9.176;2023-11-22T14:15:33;10.60;;;6.40;;
49610;SDS011;35515;48.766;9.176;2023-11-22T14:18:01;11.57;;;6.72;;
49610;SDS011;35515;48.766;9.176;2023-11-22T14:20:29;10.63;;;6.88;;
49610;SDS011;35515;48.766;9.176;2023-11-22T14:22:55;9.52;;;5.75;;
49610;SDS011;35515;48.766;9.176;2023-11-22T14:25:22;8.73;;;5.53;;
49610;SDS011;35515;48.766;9.176;2023-11-22T14:27:48;9.68;;;5.72;;
49610;SDS011;35515;48.766;9.176;2023-11-22T14:30:17;10.25;;;6.13;;
49610;SDS011;35515;48.766;9.176;2023-11-22T14:32:46;8.98;;;5.90;;
49610;SDS011;35515;48.766;9.176;2023-11-22T14:35:14;10.40;;;5.97;;
49610;SDS011;35515;48.766;9.176;2023-11-22T14:37:40;11.40;;;5.72;;
49610;SDS011;35515;48.766;9.176;2023-11-22T14:40:08;9.35;;;5.95;;
49610;SDS011;35515;48.766;9.176;2023-11-22T14:42:38;14.30;;;8.02;;
49610;SDS011;35515;48.766;9.176;2023-11-22T14:45:06;8.73;;;6.22;;
49610;SDS011;35515;48.766;9.176;2023-11-22T14:47:33;12.02;;;7.15;;
49610;SDS011;35515;48.766;9.176;2023-11-22T14:50:01;8.45;;;5.90;;
49610;SDS011;35515;48.766;9.176;2023-11-22T14:52:31;9.65;;;6.78;;
49610;SDS011;35515;48.766;9.176;2023-11-22T14:54:57;10.98;;;7.00;;